West Union, SC (29696)

06:59 PM EDT del 27 Agosto 2014 (GMT -0400)
West Walhalla (Near Library) KelBren | Change Station
CLOSE
Current Station
Stazione meteo personale
Location: Walhalla, SC
Altitudine: 1060 ft
Stazioni meteo nelle vicinanze

Alt. 1060 ft 34.76 °N, 83.07 °W | Updated 10 minutes ago

Sereno
Sereno
80.8 °F
Sembra 82 °F
N
0.0
Vento Variabile Vento da Ovest

Oggi
Massima -- | Minima -- °F
--% Possibilità di precip.
Ieri
Massima -- | Minima -- °F
Precip. -- in
7:01 AM 8:05 PM
Luna crescente, 5% visible
Pressione 30.01 in
Visibilità 10.0 miglia
Nuvole Sereno
Indice di calore 82 °F
Punto di rugiada 64 °F
Umidità 56%
Piovosità 0.00 in
Spessore del manto nevoso Non disponibile.
Raggi UV 1 fuori da 12
Polline 9.10 fuori da 12
Ozono Buono
PM2.5 Buono
Flu Activity Non disponibile.
METAR KCEU 272254Z AUTO 00000KT 10SM CLR 31/14 A3004 RMK AO2 SLP160 T03060144

More Conditions Fewer Conditions

Pressione 30.01 in
Visibilità 10.0 miglia
Nuvole Sereno
Indice di calore 82 °F
Punto di rugiada 64 °F
Umidità 56%
Piovosità 0.00 in
Spessore del manto nevoso Non disponibile.
Raggi UV 1 fuori da 12
Polline 9.10 fuori da 12
Ozono Buono
PM2.5 Buono
Flu Activity Non disponibile.
METAR KCEU 272254Z AUTO 00000KT 10SM CLR 31/14 A3004 RMK AO2 SLP160 T03060144

More Conditions Fewer Conditions

10-Day Weather Forecast

Almanac

Astronomia

Aug. 27, 2014 Alba Tramonto
Ora attuale 07:01 EDT 20:05 EDT
Crepuscolo civile 06:35 EDT 20:31 EDT
Crepuscolo nautico 06:04 EDT 21:02 EDT
Crepuscolo astronomico 05:32 EDT 21:33 EDT
Luna 08:50 EDT 21:04 EDT
Estensione della luce visibile 13h 55m
Lunghezza del giorno
13h 03m
Tomorrow will be 2m 3s shorter.
Luna crescente, 5% of the Moon is Illuminated
Oggi
Luna crescente
Set 2
Primo quarto
Set 8
Luna piena
Set 15
Ultimo quarto
Set 24
Nuovo

Gli estremi di oggi

State Highs State Lows

Community

WunderPhotos

Upload Photos

1,747,805 foto caricate!

Nearby

Qualità dell'aria

  Qualità dell'aria Indice AQ Inquinante
Ieri Buono
OZONE
Ieri Buono
PM2.5
Attuale Buono
OZONE
Attuale Buono
PM2.5
Mercoledì Moderato
OZONE
Giovedì Moderato
OZONE

Profondità neve

Stazione Profondità Altitudine
Non sono state evidenziate nuove nevicate

Attività sismica

Città  Distanza Mag. Data & Ora
Non sono state riportate attività sismiche nelle vicinanze.
Minimo Magnitudo Mostrato è 2.5.

Temperature delle acque costiere

Località Temperatura
Nessun dato dalle stazioni

Stazioni meteo nelle vicinanze